Chalets de Bairoa, Puerto Rico
Current Conditions -  °F | °C
As of 8:56 AM on Wednesday 26 Nov 2014 (Local Time) from TJSJ Reporting Station
Scattered Clouds Scattered Clouds  
Wind Chill: 79°   Ceiling: Unl
Heat Index: 83°   Visibility: 10mi
Dew Point: 76°   Wind: 6mph
Humidity: 90%   Direction: 100°E
Pressure: 30.06"   Gusts: NA
Location:  18.2351°N, 66.0374°W
Report Text: TJSJ 261256Z 10005KT 10SM FEW026 SCT035 SCT070 26/24 A3006 RMK AO2 RAE40 SLP176 VCSH W P0009 T02610244
Loading
Personal Weather Stations






























Interactive Weather Map New forecast layout! Learn more

10-Day Weather Forecast

Advertisements
Track Severe Weather on mobile